Time;durP1;ratioP1;P1;durP2;ratioP2;P2;SDS_P1;SDS_P2;PMS_P1;PMS_P2;Temp;Humidity;BMP_temperature;BMP_pressure;BME280_temperature;BME280_humidity;BME280_pressure;Samples;Min_cycle;Max_cycle;Signal;HPM_P1;HPM_P2
2022/08/18 00:00:50;;;;;;;;;20.25;18.75;;;;;24.85;55.62;100663.44;2112194;27;47818;-50
2022/08/18 00:02:01;;;;;;;;;21.25;21.25;;;;;24.87;55.46;100668.72;2088772;28;47565;-54
2022/08/18 00:03:07;;;;;;;;;22.20;21.60;;;;;24.87;55.21;100660.59;2092392;28;47487;-52
2022/08/18 00:04:09;;;;;;;;;21.20;21.20;;;;;24.88;55.27;100667.75;2106808;27;48009;-54
2022/08/18 00:05:13;;;;;;;;;13.20;13.20;;;;;24.86;55.51;100670.59;2105889;28;47822;-53
2022/08/18 00:06:15;;;;;;;;;22.60;20.40;;;;;24.86;55.61;100664.28;2107328;27;47719;-53
2022/08/18 00:07:20;;;;;;;;;20.00;20.00;;;;;24.86;54.91;100667.00;2107052;27;48043;-53
2022/08/18 00:08:21;;;;;;;;;22.40;22.40;;;;;24.83;55.40;100673.56;2105728;28;48021;-50
2022/08/18 00:09:21;;;;;;;;;24.50;23.50;;;;;24.81;55.15;100667.41;2098271;28;47527;-51
2022/08/18 00:10:21;;;;;;;;;22.50;22.50;;;;;24.81;55.00;100675.53;2089420;28;47310;-53
2022/08/18 00:11:22;;;;;;;;;26.00;26.00;;;;;24.81;55.31;100671.97;2096483;28;47914;-50
2022/08/18 00:12:29;;;;;;;;;23.50;23.50;;;;;24.81;55.36;100663.81;2106758;27;47437;-55
2022/08/18 00:13:30;;;;;;;;;21.60;21.60;;;;;24.81;55.19;100664.69;2106913;27;47730;-54
2022/08/18 00:14:30;;;;;;;;;22.25;20.25;;;;;24.82;55.08;100668.25;2097132;28;47125;-51
2022/08/18 00:15:31;;;;;;;;;23.00;23.00;;;;;24.81;55.62;100672.81;2100201;28;47258;-52
2022/08/18 00:16:31;;;;;;;;;22.75;21.75;;;;;24.81;55.48;100666.53;2114402;27;47356;-53
2022/08/18 00:17:34;;;;;;;;;20.50;20.50;;;;;24.81;55.24;100664.69;2106272;27;47926;-52
2022/08/18 00:18:34;;;;;;;;;23.40;22.40;;;;;24.80;55.87;100665.66;2106662;27;47234;-54
2022/08/18 00:19:35;;;;;;;;;21.00;20.75;;;;;24.80;55.47;100662.09;2105806;28;47259;-52
2022/08/18 00:20:35;;;;;;;;;24.75;23.50;;;;;24.81;55.46;100663.81;2106731;27;47762;-53
2022/08/18 00:21:36;;;;;;;;;21.25;21.25;;;;;24.81;55.41;100659.25;2106806;27;47380;-54
2022/08/18 00:22:38;;;;;;;;;22.50;22.50;;;;;24.80;55.83;100659.38;2105573;27;47494;-52
2022/08/18 00:23:39;;;;;;;;;20.00;20.00;;;;;24.79;55.53;100658.53;2106586;27;47442;-55
2022/08/18 00:24:40;;;;;;;;;23.50;22.00;;;;;24.79;55.73;100661.25;2087626;28;47933;-53
2022/08/18 00:25:41;;;;;;;;;20.60;19.60;;;;;24.79;55.79;100658.53;2088636;28;47304;-53
2022/08/18 00:26:41;;;;;;;;;23.25;23.25;;;;;24.79;55.66;100660.38;2098126;28;47350;-53
2022/08/18 00:27:42;;;;;;;;;20.00;20.00;;;;;24.79;55.68;100663.09;2105014;28;47677;-53
2022/08/18 00:28:42;;;;;;;;;23.50;23.50;;;;;24.78;55.71;100661.38;2113927;27;47004;-52
2022/08/18 00:29:42;;;;;;;;;24.00;22.50;;;;;24.79;55.59;100669.38;2104924;28;47268;-54
2022/08/18 00:30:43;;;;;;;;;20.75;20.75;;;;;24.79;56.01;100666.66;2095534;28;47808;-54
2022/08/18 00:31:43;;;;;;;;;21.50;21.00;;;;;24.78;56.01;100662.22;2102223;27;47904;-50
2022/08/18 00:32:47;;;;;;;;;23.50;22.25;;;;;24.78;55.85;100670.38;2105925;28;47249;-53
2022/08/18 00:33:48;;;;;;;;;20.80;20.60;;;;;24.79;55.93;100673.94;2106470;27;47797;-52
2022/08/18 00:34:49;;;;;;;;;20.50;20.50;;;;;24.79;55.80;100668.53;2106591;27;47787;-53
2022/08/18 00:35:49;;;;;;;;;23.00;23.00;;;;;24.78;56.15;100664.06;2105490;27;47611;-54
2022/08/18 00:36:49;;;;;;;;;21.00;19.25;;;;;24.79;56.03;100663.09;2106442;27;47365;-52
2022/08/18 00:37:50;;;;;;;;;21.75;20.75;;;;;24.77;56.03;100665.03;2106297;27;47600;-55
2022/08/18 00:38:50;;;;;;;;;19.50;19.50;;;;;24.78;56.36;100666.78;2105746;28;47295;-56
2022/08/18 00:39:52;;;;;;;;;22.00;20.75;;;;;24.78;56.22;100654.09;2097612;28;47388;-53
2022/08/18 00:40:54;;;;;;;;;21.60;20.60;;;;;24.78;56.36;100655.94;2097021;28;47333;-52
2022/08/18 00:41:55;;;;;;;;;23.40;21.80;;;;;24.78;56.15;100659.50;2105221;28;47483;-51
2022/08/18 00:43:00;;;;;;;;;23.00;21.00;;;;;24.78;56.30;100659.50;2097730;28;47110;-53
2022/08/18 00:44:03;;;;;;;;;19.60;18.80;;;;;24.78;55.96;100658.66;2096991;28;47794;-54
2022/08/18 00:45:05;;;;;;;;;24.80;24.00;;;;;24.79;56.02;100663.09;2080023;28;47388;-51
2022/08/18 00:46:07;;;;;;;;;21.20;21.20;;;;;24.78;56.02;100654.09;2080922;28;48533;-54
2022/08/18 00:47:08;;;;;;;;;21.40;21.20;;;;;24.79;56.39;100665.81;2105550;28;47896;-54
2022/08/18 00:48:11;;;;;;;;;19.75;18.75;;;;;24.79;56.25;100660.38;2106209;27;47123;-52
2022/08/18 00:49:15;;;;;;;;;24.00;22.80;;;;;24.78;56.32;100664.94;2106372;27;47761;-49
2022/08/18 00:50:22;;;;;;;;;22.20;21.80;;;;;24.77;56.22;100660.47;2105624;28;47174;-54
2022/08/18 00:51:52;;;;;;;;;18.40;18.40;;;;;24.77;56.38;100663.19;2097283;28;47296;-55
2022/08/18 00:52:59;;;;;;;;;19.80;19.20;;;;;24.78;56.19;100664.94;2088160;28;47462;-52
2022/08/18 00:54:09;;;;;;;;;22.60;20.40;;;;;24.77;56.20;100667.75;2088466;28;47333;-53
2022/08/18 00:55:10;;;;;;;;;19.40;18.40;;;;;24.76;56.13;100675.03;2079420;28;47490;-54
2022/08/18 00:56:18;;;;;;;;;19.50;19.50;;;;;24.76;56.39;100664.19;2079947;28;47594;-56
2022/08/18 00:57:20;;;;;;;;;21.60;20.20;;;;;24.75;56.31;100667.88;2088344;28;47825;-54
2022/08/18 00:58:29;;;;;;;;;20.40;20.40;;;;;24.76;56.24;100666.03;2079336;28;47535;-53
2022/08/18 00:59:36;;;;;;;;;19.40;19.20;;;;;24.75;56.75;100667.03;2081731;28;47790;-56
2022/08/18 01:00:37;;;;;;;;;18.00;17.60;;;;;24.74;56.20;100663.44;2080167;28;47848;-53
2022/08/18 01:01:40;;;;;;;;;18.40;18.40;;;;;24.75;56.41;100661.59;2087756;28;47195;-55
2022/08/18 01:02:45;;;;;;;;;20.80;19.20;;;;;24.76;56.58;100674.16;2088975;28;47888;-53
2022/08/18 01:03:52;;;;;;;;;19.60;18.00;;;;;24.76;56.77;100674.16;2088094;28;48115;-53
2022/08/18 01:05:20;;;;;;;;;18.80;18.00;;;;;24.74;56.44;100677.00;2087905;28;47778;-53
2022/08/18 01:06:31;;;;;;;;;23.00;21.40;;;;;24.72;56.27;100676.28;2086395;28;47589;-53
2022/08/18 01:07:38;;;;;;;;;18.60;17.20;;;;;24.70;56.68;100678.25;2084327;28;47887;-53
2022/08/18 01:08:39;;;;;;;;;20.00;17.60;;;;;24.71;56.29;100679.13;2088436;28;48359;-52
2022/08/18 01:09:40;;;;;;;;;21.40;20.00;;;;;24.72;56.51;100673.56;2079342;28;47490;-54
2022/08/18 01:10:41;;;;;;;;;22.00;22.00;;;;;24.72;56.90;100679.00;2082920;28;47562;-55
2022/08/18 01:11:43;;;;;;;;;20.00;19.00;;;;;24.74;56.38;100677.00;2095839;28;47586;-48
2022/08/18 01:12:48;;;;;;;;;22.80;20.00;;;;;24.75;56.57;100677.88;2089784;28;47353;-52
2022/08/18 01:13:50;;;;;;;;;19.40;18.00;;;;;24.75;56.81;100677.88;2080837;28;47599;-54
2022/08/18 01:14:50;;;;;;;;;17.20;17.20;;;;;24.75;56.83;100681.44;2079190;28;47384;-54
2022/08/18 01:15:50;;;;;;;;;17.50;16.75;;;;;24.76;56.66;100676.88;2094270;28;47399;-52
2022/08/18 01:22:37;;;;;;;;;21.20;19.80;;;;;24.76;56.66;100671.47;2089010;28;47463;-55
2022/08/18 01:23:39;;;;;;;;;20.00;20.00;;;;;24.75;56.74;100669.72;2088381;28;47749;-53
2022/08/18 01:25:59;;;;;;;;;19.00;18.20;;;;;24.75;56.53;100669.72;2087466;28;47867;-51
2022/08/18 01:26:59;;;;;;;;;17.25;16.75;;;;;24.74;56.91;100671.59;2072444;28;47508;-52
2022/08/18 01:28:02;;;;;;;;;18.50;17.50;;;;;24.74;56.83;100673.44;2071904;28;46008;-53
2022/08/18 01:29:10;;;;;;;;;20.00;20.00;;;;;24.75;56.35;100667.03;2088169;28;47900;-53
2022/08/18 01:30:15;;;;;;;;;17.80;17.80;;;;;24.75;56.49;100667.88;2100640;27;47774;-53
2022/08/18 01:31:36;;;;;;;;;17.20;17.20;;;;;24.76;56.34;100674.16;2101140;27;47381;-54
2022/08/18 01:32:38;;;;;;;;;19.20;17.40;;;;;24.77;56.96;100665.91;2105295;28;47499;-55
2022/08/18 01:33:41;;;;;;;;;15.20;14.20;;;;;24.77;56.69;100668.63;2106376;27;47230;-53
2022/08/18 01:34:43;;;;;;;;;18.60;17.20;;;;;24.78;56.54;100666.78;2106772;27;47821;-54
2022/08/18 01:35:48;;;;;;;;;19.20;19.20;;;;;24.78;56.50;100666.78;2086720;28;47201;-51
2022/08/18 01:36:51;;;;;;;;;19.80;19.80;;;;;24.79;56.80;100663.94;2090227;28;47701;-52
2022/08/18 01:37:54;;;;;;;;;16.80;16.80;;;;;24.79;56.97;100673.94;2105229;28;48071;-52
2022/08/18 01:38:55;;;;;;;;;18.80;18.80;;;;;24.78;56.67;100678.50;2105668;28;47512;-52
2022/08/18 01:39:56;;;;;;;;;20.80;20.80;;;;;24.78;56.65;100673.09;2106520;27;47649;-54
2022/08/18 01:40:56;;;;;;;;;21.25;21.00;;;;;24.78;56.63;100675.78;2096545;28;45996;-51
2022/08/18 01:41:57;;;;;;;;;19.50;17.00;;;;;24.77;56.59;100671.31;2088182;28;46040;-53
2022/08/18 01:42:59;;;;;;;;;19.25;19.00;;;;;24.77;56.42;100678.59;2097245;28;47461;-55
2022/08/18 01:44:01;;;;;;;;;18.40;18.40;;;;;24.78;56.79;100675.78;2095856;28;47502;-50
2022/08/18 01:45:05;;;;;;;;;18.60;18.60;;;;;24.77;56.91;100674.03;2089096;28;47626;-53
2022/08/18 01:46:05;;;;;;;;;15.60;15.60;;;;;24.78;57.30;100677.66;2097701;28;47867;-54
2022/08/18 01:47:09;;;;;;;;;20.50;19.00;;;;;24.76;56.66;100675.03;2105172;28;47268;-54
2022/08/18 01:48:10;;;;;;;;;20.20;20.20;;;;;24.76;56.63;100675.03;2111638;27;47974;-52
2022/08/18 01:49:12;;;;;;;;;20.25;18.50;;;;;24.75;56.72;100670.59;2103839;28;47574;-53
2022/08/18 01:50:12;;;;;;;;;20.40;18.60;;;;;24.75;56.63;100673.31;2096099;28;47479;-50
2022/08/18 01:51:13;;;;;;;;;21.25;20.00;;;;;24.74;56.81;100671.59;2110469;27;47574;-52
2022/08/18 01:52:19;;;;;;;;;19.60;18.20;;;;;24.75;57.03;100667.03;2110161;27;46649;-52
2022/08/18 01:53:19;;;;;;;;;21.00;20.60;;;;;24.75;57.12;100675.16;2105109;28;48015;-54
2022/08/18 01:54:20;;;;;;;;;17.75;17.75;;;;;24.74;56.83;100668.00;2106351;27;47366;-53
2022/08/18 01:55:20;;;;;;;;;17.25;17.25;;;;;24.73;56.82;100675.28;2105027;28;47481;-54
2022/08/18 01:56:21;;;;;;;;;19.75;16.50;;;;;24.73;56.67;100674.44;2097191;28;47544;-50
2022/08/18 01:57:21;;;;;;;;;18.75;18.75;;;;;24.71;56.96;100673.69;2097475;28;47133;-52
2022/08/18 01:58:26;;;;;;;;;21.50;21.25;;;;;24.72;57.12;100676.28;2095978;28;48084;-50
2022/08/18 01:59:27;;;;;;;;;18.60;18.60;;;;;24.72;57.05;100678.13;2106726;27;47928;-53
2022/08/18 02:00:28;;;;;;;;;18.25;17.00;;;;;24.71;56.99;100673.69;2096165;28;47619;-53
2022/08/18 02:01:29;;;;;;;;;19.80;18.40;;;;;24.70;56.68;100672.84;2088683;28;47176;-51
2022/08/18 02:02:32;;;;;;;;;20.75;18.75;;;;;24.70;56.43;100674.69;2097347;28;47282;-50
2022/08/18 02:03:40;;;;;;;;;14.60;14.40;;;;;24.70;56.81;100674.69;2104751;28;48032;-55
2022/08/18 02:04:42;;;;;;;;;19.40;18.60;;;;;24.70;56.93;100680.97;2106531;27;47753;-52
2022/08/18 02:05:47;;;;;;;;;19.80;18.40;;;;;24.68;56.64;100677.53;2106740;27;47883;-52
2022/08/18 02:06:48;;;;;;;;;17.00;16.20;;;;;24.68;56.94;100672.09;2104895;28;47401;-50
2022/08/18 02:07:49;;;;;;;;;20.00;19.60;;;;;24.68;57.11;100668.53;2083900;28;48184;-52
2022/08/18 02:08:49;;;;;;;;;20.00;20.00;;;;;24.67;56.95;100670.38;2083974;28;47776;-53
2022/08/18 02:09:50;;;;;;;;;20.25;18.00;;;;;24.67;56.83;100683.09;2104973;28;47951;-50
2022/08/18 02:10:50;;;;;;;;;18.75;18.25;;;;;24.65;56.93;100681.38;2106267;27;47861;-50
2022/08/18 02:11:51;;;;;;;;;16.75;16.75;;;;;24.66;57.26;100679.50;2106011;27;47741;-53
2022/08/18 02:12:51;;;;;;;;;20.00;18.00;;;;;24.67;56.75;100685.78;2086661;28;47587;-51
2022/08/18 02:13:52;;;;;;;;;15.75;15.75;;;;;24.66;56.89;100690.38;2082940;28;47648;-53
2022/08/18 02:14:52;;;;;;;;;19.50;19.50;;;;;24.65;56.68;100689.50;2104960;28;47681;-53
2022/08/18 02:15:52;;;;;;;;;19.75;19.75;;;;;24.62;57.00;100689.72;2111300;27;47714;-54
2022/08/18 02:16:56;;;;;;;;;20.00;20.00;;;;;24.59;56.67;100698.13;2101885;28;47725;-55
2022/08/18 02:17:56;;;;;;;;;21.20;20.00;;;;;24.55;57.11;100693.94;2096260;28;47966;-54
2022/08/18 02:18:57;;;;;;;;;19.25;17.00;;;;;24.49;56.34;100701.69;2079649;28;47495;-52
2022/08/18 02:19:57;;;;;;;;;17.50;17.50;;;;;24.43;56.53;100694.91;2079815;28;47672;-51
2022/08/18 02:21:09;;;;;;;;;18.00;18.00;;;;;24.36;56.90;100694.53;2112950;27;47656;-50
2022/08/18 02:22:13;;;;;;;;;16.00;14.00;;;;;24.33;56.70;100693.91;2108199;27;46993;-49
2022/08/18 02:23:13;;;;;;;;;18.40;18.20;;;;;24.29;56.91;100705.97;2105977;27;47670;-52
2022/08/18 02:24:13;;;;;;;;;15.75;15.75;;;;;24.26;56.76;100708.91;2105231;28;47378;-52
2022/08/18 02:25:15;;;;;;;;;17.25;16.75;;;;;24.22;56.94;100702.88;2106519;27;47442;-50
2022/08/18 02:26:17;;;;;;;;;19.80;14.60;;;;;24.18;56.85;100714.09;2104758;28;47274;-51
2022/08/18 02:27:17;;;;;;;;;13.20;13.20;;;;;24.16;56.62;100714.22;2105914;27;47776;-54
2022/08/18 02:28:18;;;;;;;;;17.75;16.75;;;;;24.14;56.97;100713.47;2099271;28;47029;-52
2022/08/18 02:29:18;;;;;;;;;16.25;16.25;;;;;24.14;57.03;100716.19;2104214;28;47581;-51
2022/08/18 02:30:19;;;;;;;;;14.75;14.75;;;;;24.12;56.82;100712.69;2107442;27;48221;-53
2022/08/18 02:31:23;;;;;;;;;15.50;15.50;;;;;24.10;56.75;100714.69;2101378;27;47646;-50
2022/08/18 02:32:23;;;;;;;;;17.60;17.60;;;;;24.08;56.86;100709.38;2104360;28;47850;-52
2022/08/18 02:33:23;;;;;;;;;15.25;15.25;;;;;24.05;56.75;100716.91;2106015;27;47889;-50
2022/08/18 02:34:24;;;;;;;;;16.00;16.00;;;;;24.03;56.93;100711.59;2105224;27;47593;-50
2022/08/18 02:35:24;;;;;;;;;17.00;15.50;;;;;23.99;56.85;100711.94;2105794;27;47388;-54
2022/08/18 02:36:25;;;;;;;;;15.25;15.25;;;;;23.98;56.75;100710.22;2105585;27;47315;-52
2022/08/18 02:37:25;;;;;;;;;17.00;16.50;;;;;23.94;56.62;100709.59;2104835;28;47576;-49
2022/08/18 02:38:26;;;;;;;;;16.50;16.50;;;;;23.94;57.01;100703.31;2105945;27;47729;-51
2022/08/18 02:39:27;;;;;;;;;17.75;17.75;;;;;23.93;57.18;100707.88;2087283;28;47570;-49
2022/08/18 02:40:28;;;;;;;;;13.60;13.60;;;;;23.92;57.20;100700.72;2086830;28;47149;-51
2022/08/18 02:41:28;;;;;;;;;19.00;19.00;;;;;23.88;57.08;100701.91;2096896;28;47681;-53
2022/08/18 02:42:29;;;;;;;;;16.50;16.25;;;;;23.86;57.16;100700.31;2096097;28;47721;-54
2022/08/18 02:43:30;;;;;;;;;16.40;16.40;;;;;23.83;57.14;100698.72;2105074;27;48145;-53
2022/08/18 02:44:31;;;;;;;;;15.75;15.75;;;;;23.81;57.30;100707.94;2106044;27;47364;-53
2022/08/18 02:45:31;;;;;;;;;16.75;15.75;;;;;23.78;57.26;100698.22;2105342;28;47815;-55
2022/08/18 02:46:32;;;;;;;;;18.50;18.50;;;;;23.77;57.47;100700.06;2096458;28;47604;-53
2022/08/18 02:47:32;;;;;;;;;21.25;18.50;;;;;23.77;57.37;100696.50;2096684;28;47895;-49
2022/08/18 02:48:33;;;;;;;;;14.75;13.75;;;;;23.78;57.73;100690.09;2105078;28;47694;-53
2022/08/18 02:49:35;;;;;;;;;15.00;15.00;;;;;23.78;57.62;100687.38;2105586;27;47733;-52
2022/08/18 02:50:44;;;;;;;;;13.00;13.00;;;;;23.81;57.26;100688.97;2105066;27;47322;-54
2022/08/18 02:51:45;;;;;;;;;18.20;17.00;;;;;23.81;57.33;100689.84;2105167;28;47647;-54
2022/08/18 02:52:45;;;;;;;;;18.00;16.80;;;;;23.82;57.20;100688.00;2107415;27;48177;-53
2022/08/18 02:53:47;;;;;;;;;16.75;16.75;;;;;23.80;57.53;100688.13;2104452;27;47214;-54
2022/08/18 02:54:47;;;;;;;;;18.60;17.80;;;;;23.80;57.28;100689.97;2105086;27;48333;-53
2022/08/18 02:55:48;;;;;;;;;18.50;17.00;;;;;23.78;57.30;100687.38;2097390;28;47263;-54
2022/08/18 02:56:51;;;;;;;;;18.20;17.60;;;;;23.76;57.31;100687.50;2095757;28;47606;-53
2022/08/18 02:57:51;;;;;;;;;20.00;19.00;;;;;23.72;57.22;100683.28;2100143;28;47428;-53
2022/08/18 02:58:59;;;;;;;;;18.00;18.00;;;;;23.71;57.27;100686.13;2105097;27;46965;-53
2022/08/18 02:59:59;;;;;;;;;20.00;20.00;;;;;23.70;57.49;100687.09;2104719;28;47479;-54
2022/08/18 03:00:59;;;;;;;;;15.75;15.75;;;;;23.66;57.25;100686.47;2106103;27;47230;-53
2022/08/18 03:02:00;;;;;;;;;18.00;17.00;;;;;23.64;57.42;100691.16;2095786;28;47117;-53
2022/08/18 03:03:00;;;;;;;;;18.75;17.50;;;;;23.62;57.70;100687.66;2103258;28;47819;-53
2022/08/18 03:04:01;;;;;;;;;22.25;20.00;;;;;23.59;57.54;100696.03;2102609;27;48124;-53
2022/08/18 03:05:01;;;;;;;;;22.00;20.75;;;;;23.57;57.34;100694.41;2096268;28;47796;-52
2022/08/18 03:06:03;;;;;;;;;22.00;20.00;;;;;23.55;57.58;100689.09;2096971;28;47237;-52
2022/08/18 03:07:06;;;;;;;;;18.80;18.80;;;;;23.52;57.46;100689.34;2097433;28;47302;-54
2022/08/18 03:08:10;;;;;;;;;17.40;17.40;;;;;23.51;57.75;100689.47;2096201;28;47734;-54
2022/08/18 03:09:12;;;;;;;;;16.80;16.80;;;;;23.51;58.01;100692.19;2096732;28;47555;-52
2022/08/18 03:10:14;;;;;;;;;18.40;17.60;;;;;23.51;57.86;100686.75;2095994;28;48208;-54
2022/08/18 03:11:20;;;;;;;;;19.60;18.60;;;;;23.52;57.90;100685.78;2103098;27;47578;-54
2022/08/18 03:12:20;;;;;;;;;20.80;20.40;;;;;23.52;57.79;100683.94;2103793;27;48120;-53
2022/08/18 03:13:21;;;;;;;;;21.50;20.50;;;;;23.52;57.80;100688.47;2096272;28;47157;-54
2022/08/18 03:14:22;;;;;;;;;21.25;19.50;;;;;23.50;57.51;100688.56;2104812;27;47765;-50
2022/08/18 03:15:22;;;;;;;;;21.00;18.50;;;;;23.48;57.84;100683.28;2109461;27;47525;-53
2022/08/18 03:16:26;;;;;;;;;18.75;16.25;;;;;23.46;57.50;100684.38;2112100;27;47338;-53
2022/08/18 03:17:27;;;;;;;;;23.60;20.40;;;;;23.45;58.09;100678.09;2097617;27;48003;-52
2022/08/18 03:18:27;;;;;;;;;19.25;17.50;;;;;23.46;58.17;100679.81;2097003;28;48008;-50
2022/08/18 03:19:28;;;;;;;;;18.75;18.75;;;;;23.48;57.98;100685.97;2096920;28;47356;-50
2022/08/18 03:20:28;;;;;;;;;21.00;20.75;;;;;23.48;57.88;100682.41;2097911;28;47592;-51
2022/08/18 03:21:30;;;;;;;;;24.50;20.25;;;;;23.48;57.93;100677.84;2097425;28;47496;-51
2022/08/18 03:22:31;;;;;;;;;21.00;20.00;;;;;23.49;57.87;100679.59;2097929;27;47289;-52
2022/08/18 03:23:31;;;;;;;;;19.00;19.00;;;;;23.48;57.97;100667.03;2098753;27;47799;-53
2022/08/18 03:24:32;;;;;;;;;22.25;20.00;;;;;23.51;57.95;100681.34;2097539;27;47621;-54
2022/08/18 03:25:32;;;;;;;;;17.25;16.25;;;;;23.51;58.03;100676.78;2099115;28;48083;-53
2022/08/18 03:26:33;;;;;;;;;18.75;18.75;;;;;23.52;57.78;100678.50;2098208;28;47790;-54
2022/08/18 03:27:34;;;;;;;;;19.60;19.60;;;;;23.52;57.97;100681.22;2097519;28;46729;-53
2022/08/18 03:28:34;;;;;;;;;19.00;19.00;;;;;23.54;57.88;100673.84;2098657;28;47422;-52
2022/08/18 03:29:35;;;;;;;;;20.00;18.25;;;;;23.54;57.67;100671.13;2098033;28;47441;-52
2022/08/18 03:30:36;;;;;;;;;19.00;19.00;;;;;23.55;57.91;100670.16;2096959;27;47625;-54
2022/08/18 03:31:37;;;;;;;;;19.50;19.50;;;;;23.56;58.11;100669.16;2094114;28;47517;-52
2022/08/18 03:32:37;;;;;;;;;22.20;16.80;;;;;23.57;57.55;100668.19;2097497;28;47703;-53
2022/08/18 03:33:37;;;;;;;;;22.25;21.00;;;;;23.57;57.40;100673.59;2098545;28;47397;-53
2022/08/18 03:34:38;;;;;;;;;17.25;17.25;;;;;23.57;57.54;100667.31;2099874;28;47546;-51
2022/08/18 03:35:40;;;;;;;;;20.50;19.00;;;;;23.56;57.51;100671.88;2105982;27;47720;-53
2022/08/18 03:36:40;;;;;;;;;19.20;18.20;;;;;23.56;57.65;100669.16;2100217;28;47766;-53
2022/08/18 03:37:42;;;;;;;;;20.50;19.75;;;;;23.57;57.60;100676.31;2089411;28;47168;-51
2022/08/18 03:38:44;;;;;;;;;19.60;18.40;;;;;23.57;57.50;100670.88;2097025;28;46889;-54
2022/08/18 03:39:45;;;;;;;;;21.20;20.20;;;;;23.56;57.98;100669.16;2098745;28;47741;-54
2022/08/18 03:40:51;;;;;;;;;21.00;19.50;;;;;23.54;57.54;100678.38;2097353;27;47169;-53
2022/08/18 03:41:53;;;;;;;;;21.20;21.20;;;;;23.53;57.38;100679.38;2097634;28;47641;-54
2022/08/18 03:42:55;;;;;;;;;21.00;21.00;;;;;23.52;57.52;100677.66;2098120;28;47726;-49
2022/08/18 03:43:55;;;;;;;;;19.80;19.80;;;;;23.50;57.50;100685.88;2097407;28;47447;-52
2022/08/18 03:44:56;;;;;;;;;21.00;21.00;;;;;23.47;57.76;100683.41;2097948;28;47367;-53
2022/08/18 03:46:05;;;;;;;;;22.75;22.75;;;;;23.46;57.75;100681.66;2098530;28;46830;-52
2022/08/18 03:47:09;;;;;;;;;19.60;18.60;;;;;23.42;57.37;100675.63;2097113;28;47983;-49
2022/08/18 03:48:09;;;;;;;;;22.00;21.00;;;;;23.39;57.92;100677.72;2098153;28;47649;-51
2022/08/18 03:49:12;;;;;;;;;21.75;20.75;;;;;23.37;57.48;100680.50;2098422;28;47447;-52
2022/08/18 03:50:12;;;;;;;;;24.20;22.20;;;;;23.37;57.69;100676.94;2097524;28;47360;-52
2022/08/18 03:51:16;;;;;;;;;22.50;20.25;;;;;23.36;58.01;100670.66;2098125;28;47769;-52
2022/08/18 03:52:16;;;;;;;;;21.40;21.20;;;;;23.35;57.78;100666.22;2100192;28;47528;-53
2022/08/18 03:53:18;;;;;;;;;17.75;17.75;;;;;23.33;57.47;100668.19;2097082;28;47111;-53
2022/08/18 03:54:18;;;;;;;;;20.80;19.00;;;;;23.32;57.96;100676.44;2090159;28;47370;-54
2022/08/18 03:55:18;;;;;;;;;19.50;19.00;;;;;23.31;57.74;100677.41;2096726;28;46822;-50
2022/08/18 03:56:22;;;;;;;;;20.75;20.75;;;;;23.30;58.10;100671.13;2098699;28;47558;-51
2022/08/18 03:57:23;;;;;;;;;24.60;23.00;;;;;23.30;58.33;100671.13;2098407;28;47854;-52
2022/08/18 03:58:23;;;;;;;;;16.75;16.75;;;;;23.30;58.03;100667.56;2094472;28;47861;-53
2022/08/18 03:59:26;;;;;;;;;20.50;20.00;;;;;23.29;57.88;100668.56;2098339;28;47570;-52
2022/08/18 04:00:26;;;;;;;;;17.60;17.40;;;;;23.26;58.07;100666.94;2096919;28;47604;-54
2022/08/18 04:01:31;;;;;;;;;21.25;19.75;;;;;23.26;58.22;100669.66;2097844;28;47475;-53
2022/08/18 04:02:32;;;;;;;;;22.60;19.40;;;;;23.25;58.28;100673.34;2098444;28;47571;-52
2022/08/18 04:03:32;;;;;;;;;18.25;18.25;;;;;23.28;58.27;100677.66;2105727;28;47566;-51
2022/08/18 04:04:33;;;;;;;;;22.25;21.50;;;;;23.28;58.10;100670.41;2106617;27;48049;-52
2022/08/18 04:05:38;;;;;;;;;18.75;18.00;;;;;23.31;58.12;100672.00;2106711;27;47743;-53
2022/08/18 04:06:49;;;;;;;;;20.60;20.40;;;;;23.31;58.15;100667.44;2106178;28;47700;-53
2022/08/18 04:07:49;;;;;;;;;21.80;19.20;;;;;23.32;58.01;100674.59;2113523;27;47938;-49
2022/08/18 04:08:52;;;;;;;;;18.50;18.50;;;;;23.33;58.03;100668.19;2112586;27;47400;-52
2022/08/18 04:09:52;;;;;;;;;20.40;20.40;;;;;23.32;57.72;100663.75;2105679;27;47854;-53
2022/08/18 04:10:53;;;;;;;;;20.25;20.25;;;;;23.31;57.62;100672.88;2107211;27;48262;-52
2022/08/18 04:11:54;;;;;;;;;22.75;21.75;;;;;23.30;57.91;100667.56;2106590;27;47651;-52
2022/08/18 04:12:55;;;;;;;;;19.20;18.40;;;;;23.28;57.79;100672.25;2096961;28;47357;-51
2022/08/18 04:13:58;;;;;;;;;23.50;22.00;;;;;23.24;57.90;100663.47;2097635;28;47407;-52
2022/08/18 04:14:58;;;;;;;;;20.40;20.00;;;;;23.20;57.82;100668.25;2105832;28;47635;-53
2022/08/18 04:15:58;;;;;;;;;18.50;17.50;;;;;23.20;57.79;100667.41;2113169;27;48008;-55
2022/08/18 04:16:59;;;;;;;;;18.50;17.00;;;;;23.19;57.97;100669.25;2110944;27;47691;-55
2022/08/18 04:18:06;;;;;;;;;21.00;19.25;;;;;23.20;58.13;100657.44;2096804;28;47698;-53
2022/08/18 04:19:08;;;;;;;;;21.60;18.00;;;;;23.22;58.09;100668.13;2098523;28;47602;-53
2022/08/18 04:20:09;;;;;;;;;17.80;17.40;;;;;23.23;58.07;100663.59;2106423;27;47691;-50
2022/08/18 04:21:12;;;;;;;;;19.00;19.00;;;;;23.26;58.10;100666.09;2105873;28;47713;-52
2022/08/18 04:22:14;;;;;;;;;19.80;18.80;;;;;23.26;58.03;100660.66;2106653;27;47660;-52
2022/08/18 04:23:15;;;;;;;;;17.80;16.00;;;;;23.27;57.93;100659.69;2106332;27;47399;-54
2022/08/18 04:24:16;;;;;;;;;22.25;20.75;;;;;23.28;57.99;100656.88;2105631;28;47312;-54
2022/08/18 04:25:16;;;;;;;;;18.80;18.40;;;;;23.30;58.28;100659.44;2106295;27;48056;-53
2022/08/18 04:26:18;;;;;;;;;18.75;18.75;;;;;23.31;57.97;100658.47;2105515;28;47391;-50
2022/08/18 04:27:20;;;;;;;;;21.60;20.40;;;;;23.32;58.05;100655.63;2104909;28;47392;-53
2022/08/18 04:28:21;;;;;;;;;21.40;20.00;;;;;23.33;58.05;100660.06;2102627;28;48023;-52
2022/08/18 04:29:21;;;;;;;;;21.75;19.00;;;;;23.34;58.08;100661.78;2105782;28;47320;-53
2022/08/18 04:30:23;;;;;;;;;18.75;18.25;;;;;23.35;57.87;100670.78;2106168;27;47426;-49
2022/08/18 04:31:25;;;;;;;;;21.40;21.40;;;;;23.35;57.87;100668.06;2100303;27;47510;-50
2022/08/18 04:32:26;;;;;;;;;21.60;20.80;;;;;23.34;58.05;100672.63;2105424;28;48166;-55
2022/08/18 04:33:27;;;;;;;;;24.00;22.50;;;;;23.34;57.75;100672.63;2106498;27;47795;-51
2022/08/18 04:34:27;;;;;;;;;22.80;21.80;;;;;23.33;57.94;100679.03;2105689;27;47727;-53
2022/08/18 04:35:29;;;;;;;;;24.00;23.50;;;;;23.33;58.08;100672.75;2106384;27;47544;-51
2022/08/18 04:36:36;;;;;;;;;19.60;17.60;;;;;23.31;57.87;100675.56;2106234;27;47707;-54
2022/08/18 04:37:37;;;;;;;;;20.80;20.00;;;;;23.31;57.81;100682.84;2096781;28;48298;-51
2022/08/18 04:38:40;;;;;;;;;23.00;21.80;;;;;23.29;58.06;100679.38;2097762;28;48286;-53
2022/08/18 04:39:42;;;;;;;;;24.80;22.00;;;;;23.28;58.00;100678.53;2097149;28;47606;-52
2022/08/18 04:40:42;;;;;;;;;23.40;23.40;;;;;23.29;58.13;100684.81;2102083;27;47605;-50
2022/08/18 04:41:42;;;;;;;;;21.75;20.75;;;;;23.29;58.06;100672.13;2106929;27;47632;-53
2022/08/18 04:42:43;;;;;;;;;21.75;21.50;;;;;23.30;58.43;100687.38;2106626;27;47149;-51
2022/08/18 04:43:45;;;;;;;;;25.00;22.80;;;;;23.32;58.31;100677.31;2105553;28;48394;-50
2022/08/18 04:44:45;;;;;;;;;24.60;24.60;;;;;23.33;58.13;100686.28;2106202;27;45872;-52
2022/08/18 04:45:46;;;;;;;;;25.25;23.25;;;;;23.33;58.16;100691.69;2105239;27;47045;-52
2022/08/18 04:46:50;;;;;;;;;23.60;22.20;;;;;23.33;58.03;100680.88;2106082;27;48043;-49
2022/08/18 04:47:52;;;;;;;;;23.40;21.40;;;;;23.32;57.88;100693.56;2096178;28;46671;-52
2022/08/18 04:48:57;;;;;;;;;23.80;23.80;;;;;23.32;58.34;100689.97;2095964;28;48562;-52
2022/08/18 04:49:58;;;;;;;;;25.20;23.40;;;;;23.30;57.76;100689.22;2105761;27;47359;-52